sensor_id;sensor_type;location;lat;lon;timestamp;pressure;altitude;pressure_sealevel;temperature;humidity
75166;BME280;63747;48.042;10.088;2023-12-14T00:01:13;94103.25;;;3.57;78.25
75166;BME280;63747;48.042;10.088;2023-12-14T00:04:14;94108.81;;;3.54;78.37
75166;BME280;63747;48.042;10.088;2023-12-14T00:07:14;94116.69;;;3.54;78.59
75166;BME280;63747;48.042;10.088;2023-12-14T00:10:16;94124.53;;;3.54;78.61
75166;BME280;63747;48.042;10.088;2023-12-14T00:13:18;94122.38;;;3.49;78.87
75166;BME280;63747;48.042;10.088;2023-12-14T00:16:18;94136.63;;;3.47;78.86
75166;BME280;63747;48.042;10.088;2023-12-14T00:19:19;94144.13;;;3.42;79.07
75166;BME280;63747;48.042;10.088;2023-12-14T00:22:20;94151.16;;;3.41;79.36
75166;BME280;63747;48.042;10.088;2023-12-14T00:25:20;94154.66;;;3.32;79.56
75166;BME280;63747;48.042;10.088;2023-12-14T00:28:21;94156.94;;;3.27;79.89
75166;BME280;63747;48.042;10.088;2023-12-14T00:31:22;94168.44;;;3.34;79.92
75166;BME280;63747;48.042;10.088;2023-12-14T00:34:23;94167.31;;;3.37;79.93
75166;BME280;63747;48.042;10.088;2023-12-14T00:37:24;94181.22;;;3.37;79.76
75166;BME280;63747;48.042;10.088;2023-12-14T00:40:25;94175.97;;;3.37;79.88
75166;BME280;63747;48.042;10.088;2023-12-14T00:43:26;94185.63;;;3.37;79.87
75166;BME280;63747;48.042;10.088;2023-12-14T00:46:27;94183.19;;;3.35;79.78
75166;BME280;63747;48.042;10.088;2023-12-14T00:49:27;94192.31;;;3.31;79.83
75166;BME280;63747;48.042;10.088;2023-12-14T00:52:28;94199.31;;;3.22;80.08
75166;BME280;63747;48.042;10.088;2023-12-14T00:55:29;94194.22;;;3.21;80.20
75166;BME280;63747;48.042;10.088;2023-12-14T00:58:29;94200.72;;;3.17;80.41
75166;BME280;63747;48.042;10.088;2023-12-14T01:01:30;94198.44;;;3.14;80.52
75166;BME280;63747;48.042;10.088;2023-12-14T01:04:31;94200.88;;;3.15;80.54
75166;BME280;63747;48.042;10.088;2023-12-14T01:07:31;94208.44;;;3.18;80.63
75166;BME280;63747;48.042;10.088;2023-12-14T01:10:32;94203.88;;;3.20;80.71
75166;BME280;63747;48.042;10.088;2023-12-14T01:13:33;94218.44;;;3.23;80.52
75166;BME280;63747;48.042;10.088;2023-12-14T01:16:34;94219.66;;;3.29;80.44
75166;BME280;63747;48.042;10.088;2023-12-14T01:19:35;94224.56;;;3.32;80.35
75166;BME280;63747;48.042;10.088;2023-12-14T01:22:35;94230.50;;;3.34;80.54
75166;BME280;63747;48.042;10.088;2023-12-14T01:25:36;94229.19;;;3.38;80.55
75166;BME280;63747;48.042;10.088;2023-12-14T01:28:36;94233.19;;;3.42;80.49
75166;BME280;63747;48.042;10.088;2023-12-14T01:31:37;94240.88;;;3.43;80.39
75166;BME280;63747;48.042;10.088;2023-12-14T01:34:38;94254.97;;;3.42;80.39
75166;BME280;63747;48.042;10.088;2023-12-14T01:37:39;94246.66;;;3.47;80.23
75166;BME280;63747;48.042;10.088;2023-12-14T01:40:39;94260.09;;;3.52;80.14
75166;BME280;63747;48.042;10.088;2023-12-14T01:43:40;94257.69;;;3.59;80.20
75166;BME280;63747;48.042;10.088;2023-12-14T01:46:41;94256.41;;;3.63;80.25
75166;BME280;63747;48.042;10.088;2023-12-14T01:49:41;94255.78;;;3.69;79.95
75166;BME280;63747;48.042;10.088;2023-12-14T01:52:42;94262.69;;;3.70;79.72
75166;BME280;63747;48.042;10.088;2023-12-14T01:55:43;94261.53;;;3.72;79.72
75166;BME280;63747;48.042;10.088;2023-12-14T01:58:43;94268.25;;;3.67;79.57
75166;BME280;63747;48.042;10.088;2023-12-14T02:01:52;94274.59;;;3.64;79.61
75166;BME280;63747;48.042;10.088;2023-12-14T02:04:53;94272.13;;;3.63;79.67
75166;BME280;63747;48.042;10.088;2023-12-14T02:07:54;94277.16;;;3.56;79.43
75166;BME280;63747;48.042;10.088;2023-12-14T02:10:55;94282.50;;;3.46;79.46
75166;BME280;63747;48.042;10.088;2023-12-14T02:13:55;94291.63;;;3.42;79.65
75166;BME280;63747;48.042;10.088;2023-12-14T02:16:56;94292.88;;;3.38;79.59
75166;BME280;63747;48.042;10.088;2023-12-14T02:19:57;94295.00;;;3.35;79.55
75166;BME280;63747;48.042;10.088;2023-12-14T02:23:00;94303.28;;;3.30;79.46
75166;BME280;63747;48.042;10.088;2023-12-14T02:26:02;94303.06;;;3.23;79.47
75166;BME280;63747;48.042;10.088;2023-12-14T02:29:02;94305.84;;;3.22;79.81
75166;BME280;63747;48.042;10.088;2023-12-14T02:32:03;94316.97;;;3.24;79.64
75166;BME280;63747;48.042;10.088;2023-12-14T02:35:05;94313.03;;;3.20;79.79
75166;BME280;63747;48.042;10.088;2023-12-14T02:38:06;94331.00;;;3.15;79.52
75166;BME280;63747;48.042;10.088;2023-12-14T02:41:06;94324.69;;;3.08;79.58
75166;BME280;63747;48.042;10.088;2023-12-14T02:44:07;94327.31;;;3.08;79.76
75166;BME280;63747;48.042;10.088;2023-12-14T02:47:08;94333.53;;;3.07;79.68
75166;BME280;63747;48.042;10.088;2023-12-14T02:50:09;94336.28;;;3.05;79.93
75166;BME280;63747;48.042;10.088;2023-12-14T02:53:09;94336.44;;;3.04;79.80
75166;BME280;63747;48.042;10.088;2023-12-14T02:56:10;94338.53;;;3.00;80.04
75166;BME280;63747;48.042;10.088;2023-12-14T02:59:11;94343.91;;;2.98;80.21
75166;BME280;63747;48.042;10.088;2023-12-14T03:02:12;94341.28;;;2.98;80.26
75166;BME280;63747;48.042;10.088;2023-12-14T03:05:13;94342.97;;;3.00;80.52
75166;BME280;63747;48.042;10.088;2023-12-14T03:08:13;94343.31;;;3.05;80.43
75166;BME280;63747;48.042;10.088;2023-12-14T03:11:21;94350.06;;;3.07;80.37
75166;BME280;63747;48.042;10.088;2023-12-14T03:14:25;94357.22;;;3.05;80.49
75166;BME280;63747;48.042;10.088;2023-12-14T03:17:26;94359.72;;;3.07;80.45
75166;BME280;63747;48.042;10.088;2023-12-14T03:20:26;94365.63;;;3.09;80.53
75166;BME280;63747;48.042;10.088;2023-12-14T03:23:27;94369.88;;;3.10;80.54
75166;BME280;63747;48.042;10.088;2023-12-14T03:26:28;94368.78;;;3.12;80.67
75166;BME280;63747;48.042;10.088;2023-12-14T03:29:29;94369.88;;;3.10;80.54
75166;BME280;63747;48.042;10.088;2023-12-14T03:32:29;94386.13;;;3.13;80.61
75166;BME280;63747;48.042;10.088;2023-12-14T03:35:30;94387.78;;;3.14;80.70
75166;BME280;63747;48.042;10.088;2023-12-14T03:38:31;94391.72;;;3.18;80.59
75166;BME280;63747;48.042;10.088;2023-12-14T03:41:32;94391.88;;;3.17;80.58
75166;BME280;63747;48.042;10.088;2023-12-14T03:44:33;94386.63;;;3.17;80.72
75166;BME280;63747;48.042;10.088;2023-12-14T03:47:34;94392.69;;;3.17;80.51
75166;BME280;63747;48.042;10.088;2023-12-14T03:50:34;94401.84;;;3.13;80.75
75166;BME280;63747;48.042;10.088;2023-12-14T03:53:35;94405.56;;;3.11;80.95
75166;BME280;63747;48.042;10.088;2023-12-14T03:56:36;94400.19;;;3.12;80.93
75166;BME280;63747;48.042;10.088;2023-12-14T03:59:40;94402.81;;;3.12;80.87
75166;BME280;63747;48.042;10.088;2023-12-14T04:02:41;94408.72;;;3.14;80.77
75166;BME280;63747;48.042;10.088;2023-12-14T04:05:41;94420.28;;;3.12;80.87
75166;BME280;63747;48.042;10.088;2023-12-14T04:08:44;94423.88;;;3.11;80.90
75166;BME280;63747;48.042;10.088;2023-12-14T04:11:44;94428.44;;;3.09;81.06
75166;BME280;63747;48.042;10.088;2023-12-14T04:14:46;94432.44;;;3.13;81.10
75166;BME280;63747;48.042;10.088;2023-12-14T04:17:46;94437.53;;;3.14;81.04
75166;BME280;63747;48.042;10.088;2023-12-14T04:20:47;94448.16;;;3.13;81.25
75166;BME280;63747;48.042;10.088;2023-12-14T04:23:48;94448.16;;;3.13;80.94
75166;BME280;63747;48.042;10.088;2023-12-14T04:26:49;94453.91;;;3.16;81.01
75166;BME280;63747;48.042;10.088;2023-12-14T04:29:49;94461.59;;;3.18;81.09
75166;BME280;63747;48.042;10.088;2023-12-14T04:32:50;94469.91;;;3.13;80.90
75166;BME280;63747;48.042;10.088;2023-12-14T04:35:52;94471.72;;;3.13;81.01
75166;BME280;63747;48.042;10.088;2023-12-14T04:38:53;94475.44;;;3.10;80.93
75166;BME280;63747;48.042;10.088;2023-12-14T04:41:53;94481.63;;;3.09;80.83
75166;BME280;63747;48.042;10.088;2023-12-14T04:44:54;94482.47;;;3.10;80.91
75166;BME280;63747;48.042;10.088;2023-12-14T04:47:55;94492.78;;;3.11;81.10
75166;BME280;63747;48.042;10.088;2023-12-14T04:50:55;94496.38;;;3.10;81.02
75166;BME280;63747;48.042;10.088;2023-12-14T04:53:56;94500.50;;;3.13;81.22
75166;BME280;63747;48.042;10.088;2023-12-14T04:56:57;94512.06;;;3.20;81.14
75166;BME280;63747;48.042;10.088;2023-12-14T04:59:57;94514.38;;;3.23;81.14
75166;BME280;63747;48.042;10.088;2023-12-14T05:02:58;94515.44;;;3.30;81.18
75166;BME280;63747;48.042;10.088;2023-12-14T05:05:59;94521.72;;;3.37;80.92
75166;BME280;63747;48.042;10.088;2023-12-14T05:08:59;94525.06;;;3.39;80.91
75166;BME280;63747;48.042;10.088;2023-12-14T05:12:03;94519.94;;;3.38;80.71
75166;BME280;63747;48.042;10.088;2023-12-14T05:15:07;94529.44;;;3.39;80.69
75166;BME280;63747;48.042;10.088;2023-12-14T05:18:09;94534.31;;;3.34;80.62
75166;BME280;63747;48.042;10.088;2023-12-14T05:21:09;94531.44;;;3.27;80.68
75166;BME280;63747;48.042;10.088;2023-12-14T05:24:10;94535.31;;;3.23;80.81
75166;BME280;63747;48.042;10.088;2023-12-14T05:27:11;94546.09;;;3.20;80.73
75166;BME280;63747;48.042;10.088;2023-12-14T05:30:12;94548.31;;;3.15;80.77
75166;BME280;63747;48.042;10.088;2023-12-14T05:33:12;94560.84;;;3.11;81.00
75166;BME280;63747;48.042;10.088;2023-12-14T05:36:13;94561.16;;;3.08;81.11
75166;BME280;63747;48.042;10.088;2023-12-14T05:39:14;94567.22;;;3.09;81.05
75166;BME280;63747;48.042;10.088;2023-12-14T05:42:17;94573.44;;;3.08;80.94
75166;BME280;63747;48.042;10.088;2023-12-14T05:45:18;94578.38;;;3.11;80.87
75166;BME280;63747;48.042;10.088;2023-12-14T05:48:19;94580.72;;;3.14;81.01
75166;BME280;63747;48.042;10.088;2023-12-14T05:51:30;94585.81;;;3.15;80.98
75166;BME280;63747;48.042;10.088;2023-12-14T05:54:31;94590.88;;;3.17;80.80
75166;BME280;63747;48.042;10.088;2023-12-14T05:57:32;94598.47;;;3.20;80.77
75166;BME280;63747;48.042;10.088;2023-12-14T06:00:33;94600.78;;;3.23;80.74
75166;BME280;63747;48.042;10.088;2023-12-14T06:03:35;94605.47;;;3.29;80.97
75166;BME280;63747;48.042;10.088;2023-12-14T06:06:38;94602.41;;;3.34;80.56
75166;BME280;63747;48.042;10.088;2023-12-14T06:09:39;94606.53;;;3.36;80.52
75166;BME280;63747;48.042;10.088;2023-12-14T06:12:40;94610.28;;;3.34;80.45
75166;BME280;63747;48.042;10.088;2023-12-14T06:15:41;94612.91;;;3.34;80.49
75166;BME280;63747;48.042;10.088;2023-12-14T06:18:42;94615.38;;;3.35;80.40
75166;BME280;63747;48.042;10.088;2023-12-14T06:21:43;94620.03;;;3.32;80.45
75166;BME280;63747;48.042;10.088;2023-12-14T06:24:44;94635.91;;;3.30;80.46
75166;BME280;63747;48.042;10.088;2023-12-14T06:27:44;94643.38;;;3.25;80.19
75166;BME280;63747;48.042;10.088;2023-12-14T06:30:45;94643.00;;;3.20;80.44
75166;BME280;63747;48.042;10.088;2023-12-14T06:33:46;94659.28;;;3.14;80.47
75166;BME280;63747;48.042;10.088;2023-12-14T06:36:46;94662.16;;;3.11;80.73
75166;BME280;63747;48.042;10.088;2023-12-14T06:39:47;94670.00;;;3.11;80.74
75166;BME280;63747;48.042;10.088;2023-12-14T06:42:48;94666.41;;;3.12;80.77
75166;BME280;63747;48.042;10.088;2023-12-14T06:45:49;94678.84;;;3.10;80.74
75166;BME280;63747;48.042;10.088;2023-12-14T06:48:50;94684.06;;;3.10;80.62
75166;BME280;63747;48.042;10.088;2023-12-14T06:51:51;94690.84;;;3.12;80.42
75166;BME280;63747;48.042;10.088;2023-12-14T06:54:52;94704.31;;;3.17;80.51
75166;BME280;63747;48.042;10.088;2023-12-14T06:57:52;94702.81;;;3.15;80.52
75166;BME280;63747;48.042;10.088;2023-12-14T07:00:53;94707.06;;;3.16;80.63
75166;BME280;63747;48.042;10.088;2023-12-14T07:03:54;94713.28;;;3.15;80.54
75166;BME280;63747;48.042;10.088;2023-12-14T07:06:54;94718.53;;;3.15;80.76
75166;BME280;63747;48.042;10.088;2023-12-14T07:09:55;94723.22;;;3.21;80.81
75166;BME280;63747;48.042;10.088;2023-12-14T07:12:56;94720.13;;;3.25;80.92
75166;BME280;63747;48.042;10.088;2023-12-14T07:15:56;94729.38;;;3.30;80.81
75166;BME280;63747;48.042;10.088;2023-12-14T07:18:57;94732.69;;;3.32;80.87
75166;BME280;63747;48.042;10.088;2023-12-14T07:21:58;94739.59;;;3.33;80.61
75166;BME280;63747;48.042;10.088;2023-12-14T07:24:59;94745.94;;;3.40;80.88
75166;BME280;63747;48.042;10.088;2023-12-14T07:27:59;94744.97;;;3.41;80.71
75166;BME280;63747;48.042;10.088;2023-12-14T07:31:00;94744.97;;;3.41;80.71
75166;BME280;63747;48.042;10.088;2023-12-14T07:34:01;94752.69;;;3.42;80.89
75166;BME280;63747;48.042;10.088;2023-12-14T07:37:01;94754.50;;;3.42;80.86
75166;BME280;63747;48.042;10.088;2023-12-14T07:40:02;94761.38;;;3.43;80.73
75166;BME280;63747;48.042;10.088;2023-12-14T07:43:04;94762.47;;;3.40;80.91
75166;BME280;63747;48.042;10.088;2023-12-14T07:46:05;94767.59;;;3.42;80.75
75166;BME280;63747;48.042;10.088;2023-12-14T07:49:06;94777.66;;;3.46;80.82
75166;BME280;63747;48.042;10.088;2023-12-14T07:52:06;94784.81;;;3.44;80.71
75166;BME280;63747;48.042;10.088;2023-12-14T07:55:08;94778.91;;;3.42;80.79
75166;BME280;63747;48.042;10.088;2023-12-14T07:58:09;94792.25;;;3.39;80.80
75166;BME280;63747;48.042;10.088;2023-12-14T08:01:10;94795.00;;;3.38;80.70
75166;BME280;63747;48.042;10.088;2023-12-14T08:04:10;94792.38;;;3.38;80.78
75166;BME280;63747;48.042;10.088;2023-12-14T08:07:11;94801.50;;;3.43;80.93
75166;BME280;63747;48.042;10.088;2023-12-14T08:10:12;94804.81;;;3.45;80.79
75166;BME280;63747;48.042;10.088;2023-12-14T08:13:13;94805.38;;;3.49;80.75
75166;BME280;63747;48.042;10.088;2023-12-14T08:16:13;94809.06;;;3.56;81.05
75166;BME280;63747;48.042;10.088;2023-12-14T08:19:15;94820.66;;;3.63;80.68
75166;BME280;63747;48.042;10.088;2023-12-14T08:22:16;94822.84;;;3.68;80.75
75166;BME280;63747;48.042;10.088;2023-12-14T08:25:17;94824.22;;;3.72;80.71
75166;BME280;63747;48.042;10.088;2023-12-14T08:28:17;94827.38;;;3.75;80.77
75166;BME280;63747;48.042;10.088;2023-12-14T08:31:18;94836.75;;;3.78;80.53
75166;BME280;63747;48.042;10.088;2023-12-14T08:34:19;94843.66;;;3.79;80.53
75166;BME280;63747;48.042;10.088;2023-12-14T08:37:20;94849.44;;;3.83;80.43
75166;BME280;63747;48.042;10.088;2023-12-14T08:40:20;94863.78;;;3.78;80.46
75166;BME280;63747;48.042;10.088;2023-12-14T08:43:21;94866.03;;;3.73;80.55
75166;BME280;63747;48.042;10.088;2023-12-14T08:46:22;94870.97;;;3.76;80.76
75166;BME280;63747;48.042;10.088;2023-12-14T08:49:23;94874.03;;;3.82;80.59
75166;BME280;63747;48.042;10.088;2023-12-14T08:52:24;94875.94;;;3.89;80.40
75166;BME280;63747;48.042;10.088;2023-12-14T08:55:25;94877.28;;;3.93;80.45
75166;BME280;63747;48.042;10.088;2023-12-14T08:58:26;94882.53;;;3.93;80.43
75166;BME280;63747;48.042;10.088;2023-12-14T09:01:27;94888.22;;;3.89;80.31
75166;BME280;63747;48.042;10.088;2023-12-14T09:04:27;94894.16;;;3.91;80.27
75166;BME280;63747;48.042;10.088;2023-12-14T09:07:28;94901.44;;;3.97;80.29
75166;BME280;63747;48.042;10.088;2023-12-14T09:10:29;94906.13;;;4.03;80.19
75166;BME280;63747;48.042;10.088;2023-12-14T09:13:29;94921.72;;;4.04;79.97
75166;BME280;63747;48.042;10.088;2023-12-14T09:16:30;94926.72;;;4.07;79.80
75166;BME280;63747;48.042;10.088;2023-12-14T09:19:31;94926.00;;;4.05;79.90
75166;BME280;63747;48.042;10.088;2023-12-14T09:22:31;94931.53;;;4.02;79.86
75166;BME280;63747;48.042;10.088;2023-12-14T09:25:32;94934.97;;;4.03;79.56
75166;BME280;63747;48.042;10.088;2023-12-14T09:28:33;94947.69;;;4.07;79.72
75166;BME280;63747;48.042;10.088;2023-12-14T09:31:34;94947.41;;;4.11;79.61
75166;BME280;63747;48.042;10.088;2023-12-14T09:34:35;94947.09;;;4.14;79.60
75166;BME280;63747;48.042;10.088;2023-12-14T09:37:35;94950.44;;;4.16;79.52
75166;BME280;63747;48.042;10.088;2023-12-14T09:40:36;94957.59;;;4.14;79.31
75166;BME280;63747;48.042;10.088;2023-12-14T09:43:37;94960.91;;;4.06;79.37
75166;BME280;63747;48.042;10.088;2023-12-14T09:46:38;94960.38;;;4.02;79.46
75166;BME280;63747;48.042;10.088;2023-12-14T09:49:42;94962.59;;;4.07;79.27
75166;BME280;63747;48.042;10.088;2023-12-14T09:52:45;94969.22;;;4.01;79.37
75166;BME280;63747;48.042;10.088;2023-12-14T09:55:49;94979.97;;;4.08;79.64
75166;BME280;63747;48.042;10.088;2023-12-14T09:58:49;94972.91;;;4.18;79.57
75166;BME280;63747;48.042;10.088;2023-12-14T10:01:50;94978.16;;;4.28;79.44
75166;BME280;63747;48.042;10.088;2023-12-14T10:04:51;94987.50;;;4.50;79.17
75166;BME280;63747;48.042;10.088;2023-12-14T10:07:52;94988.44;;;4.58;79.16
75166;BME280;63747;48.042;10.088;2023-12-14T10:10:53;94998.94;;;4.58;78.81
75166;BME280;63747;48.042;10.088;2023-12-14T10:13:55;94998.00;;;4.50;78.91
75166;BME280;63747;48.042;10.088;2023-12-14T10:16:56;95002.31;;;4.41;79.02
75166;BME280;63747;48.042;10.088;2023-12-14T10:19:57;95003.16;;;4.42;79.24
75166;BME280;63747;48.042;10.088;2023-12-14T10:22:57;95003.97;;;4.42;78.99
75166;BME280;63747;48.042;10.088;2023-12-14T10:25:58;95010.72;;;4.45;78.93
75166;BME280;63747;48.042;10.088;2023-12-14T10:28:59;95003.25;;;4.40;79.13
75166;BME280;63747;48.042;10.088;2023-12-14T10:31:59;95011.03;;;4.42;79.08
75166;BME280;63747;48.042;10.088;2023-12-14T10:35:00;95011.97;;;4.41;79.12
75166;BME280;63747;48.042;10.088;2023-12-14T10:38:03;95012.25;;;4.38;78.82
75166;BME280;63747;48.042;10.088;2023-12-14T10:41:05;95015.03;;;4.36;78.86
75166;BME280;63747;48.042;10.088;2023-12-14T10:44:08;95018.34;;;4.38;78.98
75166;BME280;63747;48.042;10.088;2023-12-14T10:47:10;95024.25;;;4.40;79.03
75166;BME280;63747;48.042;10.088;2023-12-14T10:50:11;95032.69;;;4.44;78.94
75166;BME280;63747;48.042;10.088;2023-12-14T10:53:12;95034.19;;;4.46;78.85
75166;BME280;63747;48.042;10.088;2023-12-14T10:56:13;95026.47;;;4.45;78.86
75166;BME280;63747;48.042;10.088;2023-12-14T10:59:17;95037.78;;;4.45;78.51
75166;BME280;63747;48.042;10.088;2023-12-14T11:02:18;95030.03;;;4.53;78.64
75166;BME280;63747;48.042;10.088;2023-12-14T11:05:19;95036.78;;;4.66;78.43
75166;BME280;63747;48.042;10.088;2023-12-14T11:08:29;95044.66;;;4.66;78.42
75166;BME280;63747;48.042;10.088;2023-12-14T11:11:29;95041.38;;;4.54;78.11
75166;BME280;63747;48.042;10.088;2023-12-14T11:14:30;95052.84;;;4.53;78.17
75166;BME280;63747;48.042;10.088;2023-12-14T11:17:31;95066.53;;;4.56;78.34
75166;BME280;63747;48.042;10.088;2023-12-14T11:23:45;95068.03;;;4.59;78.25
75166;BME280;63747;48.042;10.088;2023-12-14T11:26:45;95070.25;;;4.64;77.97
75166;BME280;63747;48.042;10.088;2023-12-14T11:29:48;95080.06;;;4.61;78.11
75166;BME280;63747;48.042;10.088;2023-12-14T11:32:49;95079.34;;;4.59;78.27
75166;BME280;63747;48.042;10.088;2023-12-14T11:35:51;95081.56;;;4.64;78.25
75166;BME280;63747;48.042;10.088;2023-12-14T11:38:54;95088.75;;;4.72;78.30
75166;BME280;63747;48.042;10.088;2023-12-14T11:42:03;95093.56;;;4.67;78.21
75166;BME280;63747;48.042;10.088;2023-12-14T11:45:04;95086.97;;;4.63;78.21
75166;BME280;63747;48.042;10.088;2023-12-14T11:48:07;95088.59;;;4.54;78.22
75166;BME280;63747;48.042;10.088;2023-12-14T11:51:10;95085.72;;;4.47;78.39
75166;BME280;63747;48.042;10.088;2023-12-14T11:54:11;95095.53;;;4.55;78.37
75166;BME280;63747;48.042;10.088;2023-12-14T11:57:11;95086.56;;;4.57;78.19
75166;BME280;63747;48.042;10.088;2023-12-14T12:00:13;95096.75;;;4.70;78.10
75166;BME280;63747;48.042;10.088;2023-12-14T12:03:19;95092.47;;;4.88;77.90
75166;BME280;63747;48.042;10.088;2023-12-14T12:06:21;95105.00;;;5.04;77.92
75166;BME280;63747;48.042;10.088;2023-12-14T12:09:39;95103.88;;;5.16;77.71
75166;BME280;63747;48.042;10.088;2023-12-14T12:12:41;95104.81;;;5.25;77.52
75166;BME280;63747;48.042;10.088;2023-12-14T12:15:41;95099.53;;;5.25;77.59
75166;BME280;63747;48.042;10.088;2023-12-14T12:18:42;95106.19;;;5.20;77.21
75166;BME280;63747;48.042;10.088;2023-12-14T12:21:43;95100.78;;;5.21;76.88
75166;BME280;63747;48.042;10.088;2023-12-14T12:24:43;95108.09;;;5.37;77.03
75166;BME280;63747;48.042;10.088;2023-12-14T12:27:44;95105.66;;;5.53;76.88
75166;BME280;63747;48.042;10.088;2023-12-14T12:30:47;95110.25;;;5.51;76.67
75166;BME280;63747;48.042;10.088;2023-12-14T12:33:47;95109.16;;;5.44;76.48
75166;BME280;63747;48.042;10.088;2023-12-14T12:36:48;95112.47;;;5.46;76.47
75166;BME280;63747;48.042;10.088;2023-12-14T12:39:52;95119.69;;;5.44;76.15
75166;BME280;63747;48.042;10.088;2023-12-14T12:42:53;95112.78;;;5.43;75.74
75166;BME280;63747;48.042;10.088;2023-12-14T12:45:53;95116.19;;;5.53;75.92
75166;BME280;63747;48.042;10.088;2023-12-14T12:48:54;95119.00;;;5.69;76.08
75166;BME280;63747;48.042;10.088;2023-12-14T12:51:55;95120.78;;;5.79;75.69
75166;BME280;63747;48.042;10.088;2023-12-14T12:54:56;95123.00;;;5.74;75.27
75166;BME280;63747;48.042;10.088;2023-12-14T12:57:56;95125.53;;;5.65;75.33
75166;BME280;63747;48.042;10.088;2023-12-14T13:00:58;95125.69;;;5.64;75.40
75166;BME280;63747;48.042;10.088;2023-12-14T13:03:59;95127.50;;;5.63;75.49
75166;BME280;63747;48.042;10.088;2023-12-14T13:07:01;95142.00;;;5.67;75.39
75166;BME280;63747;48.042;10.088;2023-12-14T13:10:05;95138.34;;;5.78;75.25
75166;BME280;63747;48.042;10.088;2023-12-14T13:13:06;95138.22;;;5.80;75.11
75166;BME280;63747;48.042;10.088;2023-12-14T13:16:11;95139.88;;;5.90;74.94
75166;BME280;63747;48.042;10.088;2023-12-14T13:19:16;95139.97;;;5.89;74.59
75166;BME280;63747;48.042;10.088;2023-12-14T13:22:18;95145.66;;;5.84;74.56
75166;BME280;63747;48.042;10.088;2023-12-14T13:25:19;95152.34;;;5.79;74.50
75166;BME280;63747;48.042;10.088;2023-12-14T13:28:22;95155.13;;;5.67;74.42
75166;BME280;63747;48.042;10.088;2023-12-14T13:31:23;95165.41;;;5.61;74.68
75166;BME280;63747;48.042;10.088;2023-12-14T13:34:24;95165.66;;;5.67;74.83
75166;BME280;63747;48.042;10.088;2023-12-14T13:37:24;95172.97;;;5.83;74.42
75166;BME280;63747;48.042;10.088;2023-12-14T13:40:25;95176.44;;;5.74;74.36
75166;BME280;63747;48.042;10.088;2023-12-14T13:43:26;95191.38;;;5.74;74.38
75166;BME280;63747;48.042;10.088;2023-12-14T13:46:27;95195.41;;;5.68;74.34
75166;BME280;63747;48.042;10.088;2023-12-14T13:49:27;95197.88;;;5.69;74.25
75166;BME280;63747;48.042;10.088;2023-12-14T13:52:28;95205.22;;;5.76;74.44
75166;BME280;63747;48.042;10.088;2023-12-14T13:55:29;95209.38;;;5.78;74.30
75166;BME280;63747;48.042;10.088;2023-12-14T13:58:29;95207.69;;;5.87;74.19
75166;BME280;63747;48.042;10.088;2023-12-14T14:01:30;95220.72;;;5.79;74.04
75166;BME280;63747;48.042;10.088;2023-12-14T14:04:31;95221.81;;;5.76;74.03
75166;BME280;63747;48.042;10.088;2023-12-14T14:07:32;95230.81;;;5.83;73.86
75166;BME280;63747;48.042;10.088;2023-12-14T14:10:35;95229.25;;;6.00;73.72
75166;BME280;63747;48.042;10.088;2023-12-14T14:13:36;95239.94;;;5.98;73.34
75166;BME280;63747;48.042;10.088;2023-12-14T14:16:37;95251.81;;;6.03;73.50
75166;BME280;63747;48.042;10.088;2023-12-14T14:19:37;95255.72;;;5.98;73.21
75166;BME280;63747;48.042;10.088;2023-12-14T14:22:38;95255.06;;;5.87;73.38
75166;BME280;63747;48.042;10.088;2023-12-14T14:25:39;95259.19;;;5.89;73.36
75166;BME280;63747;48.042;10.088;2023-12-14T14:28:40;95260.03;;;5.80;73.40
75166;BME280;63747;48.042;10.088;2023-12-14T14:31:41;95276.94;;;5.78;73.39
75166;BME280;63747;48.042;10.088;2023-12-14T14:34:42;95277.19;;;5.75;73.22
75166;BME280;63747;48.042;10.088;2023-12-14T14:37:43;95288.56;;;5.65;73.22
75166;BME280;63747;48.042;10.088;2023-12-14T14:40:45;95288.47;;;5.57;73.29
75166;BME280;63747;48.042;10.088;2023-12-14T14:43:46;95294.97;;;5.53;73.36
75166;BME280;63747;48.042;10.088;2023-12-14T14:46:47;95298.69;;;5.60;73.69
75166;BME280;63747;48.042;10.088;2023-12-14T14:49:48;95308.50;;;5.68;73.51
75166;BME280;63747;48.042;10.088;2023-12-14T14:52:48;95311.13;;;5.68;73.38
75166;BME280;63747;48.042;10.088;2023-12-14T14:55:49;95321.38;;;5.61;73.20
75166;BME280;63747;48.042;10.088;2023-12-14T14:58:55;95327.34;;;5.54;73.53
75166;BME280;63747;48.042;10.088;2023-12-14T15:01:56;95328.88;;;5.56;73.56
75166;BME280;63747;48.042;10.088;2023-12-14T15:04:58;95336.63;;;5.58;73.62
75166;BME280;63747;48.042;10.088;2023-12-14T15:07:59;95343.53;;;5.59;73.48
75166;BME280;63747;48.042;10.088;2023-12-14T15:11:03;95347.81;;;5.60;73.31
75166;BME280;63747;48.042;10.088;2023-12-14T15:14:06;95355.56;;;5.42;73.52
75166;BME280;63747;48.042;10.088;2023-12-14T15:17:06;95359.72;;;5.25;73.84
75166;BME280;63747;48.042;10.088;2023-12-14T15:20:08;95347.50;;;5.14;73.89
75166;BME280;63747;48.042;10.088;2023-12-14T15:23:09;95366.34;;;5.20;74.00
75166;BME280;63747;48.042;10.088;2023-12-14T15:26:09;95368.72;;;5.23;73.97
75166;BME280;63747;48.042;10.088;2023-12-14T15:29:11;95370.22;;;5.25;74.02
75166;BME280;63747;48.042;10.088;2023-12-14T15:32:11;95372.13;;;5.13;74.15
75166;BME280;63747;48.042;10.088;2023-12-14T15:35:12;95383.47;;;5.04;74.15
75166;BME280;63747;48.042;10.088;2023-12-14T15:38:13;95387.91;;;5.04;74.56
75166;BME280;63747;48.042;10.088;2023-12-14T15:41:14;95388.97;;;5.01;74.62
75166;BME280;63747;48.042;10.088;2023-12-14T15:44:15;95388.97;;;5.01;74.33
75166;BME280;63747;48.042;10.088;2023-12-14T15:47:16;95398.25;;;4.96;74.42
75166;BME280;63747;48.042;10.088;2023-12-14T15:50:17;95412.22;;;4.96;74.53
75166;BME280;63747;48.042;10.088;2023-12-14T15:53:18;95413.00;;;4.87;74.77
75166;BME280;63747;48.042;10.088;2023-12-14T15:56:18;95420.47;;;4.92;74.87
75166;BME280;63747;48.042;10.088;2023-12-14T15:59:22;95427.25;;;4.94;74.70
75166;BME280;63747;48.042;10.088;2023-12-14T16:02:23;95432.09;;;4.89;74.85